Time;durP1;ratioP1;P1;durP2;ratioP2;P2;SDS_P1;SDS_P2;PMS_P1;PMS_P2;Temp;Humidity;BMP_temperature;BMP_pressure;BME280_temperature;BME280_humidity;BME280_pressure;Samples;Min_cycle;Max_cycle;Signal;HPM_P1;HPM_P2
2023/08/05 00:00:27;;;;;;;3.50;3.20;;;;;;;14.27;100.00;100875.03;4938018;29;20130;-84
2023/08/05 00:02:53;;;;;;;5.55;2.85;;;;;;;14.22;100.00;100872.50;4914406;29;20051;-90
2023/08/05 00:05:20;;;;;;;3.40;3.10;;;;;;;14.19;100.00;100871.69;4920319;29;20047;-84
2023/08/05 00:07:47;;;;;;;3.80;2.55;;;;;;;14.12;100.00;100867.44;4932403;29;20143;-84
2023/08/05 00:10:13;;;;;;;4.28;2.78;;;;;;;14.09;100.00;100863.09;4931202;29;20119;-86
2023/08/05 00:12:40;;;;;;;5.22;2.92;;;;;;;14.03;100.00;100861.47;4929007;29;20079;-84
2023/08/05 00:15:08;;;;;;;4.88;3.67;;;;;;;14.01;100.00;100871.16;4922315;29;20052;-84
2023/08/05 00:17:34;;;;;;;6.13;2.45;;;;;;;14.00;100.00;100864.19;4923444;29;20063;-84
2023/08/05 00:20:01;;;;;;;5.45;2.88;;;;;;;13.96;100.00;100859.00;4932397;29;20572;-89
2023/08/05 00:22:27;;;;;;;2.60;2.33;;;;;;;13.90;100.00;100860.84;4920916;29;20056;-85
2023/08/05 00:24:54;;;;;;;5.85;3.00;;;;;;;13.90;100.00;100854.72;4942366;29;20410;-84
2023/08/05 00:27:21;;;;;;;3.88;3.03;;;;;;;13.88;100.00;100859.13;4936305;29;20043;-86
2023/08/05 00:29:48;;;;;;;4.10;2.85;;;;;;;13.86;100.00;100860.94;4945356;29;20062;-86
2023/08/05 00:32:14;;;;;;;6.72;4.05;;;;;;;13.84;100.00;100855.69;4937004;29;20039;-87
2023/08/05 00:34:41;;;;;;;4.78;3.45;;;;;;;13.81;100.00;100871.56;4918382;28;20483;-84
2023/08/05 00:37:07;;;;;;;4.00;3.10;;;;;;;13.80;100.00;100866.31;4939367;28;20400;-84
2023/08/05 00:39:34;;;;;;;7.07;3.70;;;;;;;13.76;100.00;100873.41;4947921;29;20039;-82
2023/08/05 00:42:01;;;;;;;4.03;3.30;;;;;;;13.68;100.00;100872.69;4938492;29;20043;-83
2023/08/05 00:44:27;;;;;;;3.67;3.38;;;;;;;13.66;100.00;100871.84;4946628;28;20035;-83
2023/08/05 00:46:58;;;;;;;3.40;3.10;;;;;;;13.64;100.00;100878.91;4934828;28;20810;-83
2023/08/05 00:49:25;;;;;;;6.00;3.78;;;;;;;13.61;100.00;100871.94;4945590;29;20051;-83
2023/08/05 00:51:53;;;;;;;7.15;3.45;;;;;;;13.56;100.00;100879.03;4934429;28;20079;-84
2023/08/05 00:54:21;;;;;;;6.32;3.25;;;;;;;13.55;100.00;100869.41;4945963;28;20053;-86
2023/08/05 00:56:48;;;;;;;8.70;3.55;;;;;;;13.49;100.00;100873.03;4921519;28;20491;-85
2023/08/05 00:59:16;;;;;;;3.80;3.38;;;;;;;13.49;100.00;100874.75;4944990;28;20039;-84
2023/08/05 01:01:43;;;;;;;4.70;3.38;;;;;;;13.49;100.00;100873.03;4941133;28;20071;-84
2023/08/05 01:04:09;;;;;;;5.03;3.15;;;;;;;13.44;100.00;100866.97;4937677;29;20045;-85
2023/08/05 01:06:36;;;;;;;4.13;3.17;;;;;;;13.42;100.00;100863.50;4941350;28;20122;-85
2023/08/05 01:09:03;;;;;;;3.72;3.03;;;;;;;13.41;100.00;100872.25;4936747;29;20043;-88
2023/08/05 01:11:31;;;;;;;4.05;3.40;;;;;;;13.38;100.00;100867.94;4947088;29;20126;-83
2023/08/05 01:13:57;;;;;;;4.03;3.13;;;;;;;13.36;100.00;100867.09;4924256;28;20074;-89
2023/08/05 01:16:24;;;;;;;4.60;3.72;;;;;;;13.33;100.00;100863.63;4918053;29;20491;-85
2023/08/05 01:18:52;;;;;;;5.43;3.72;;;;;;;13.29;100.00;100859.31;4932891;28;20129;-84
2023/08/05 01:21:31;;;;;;;5.65;3.83;;;;;;;13.29;100.00;100854.06;4935340;29;20031;-84
2023/08/05 01:24:13;;;;;;;4.75;3.45;;;;;;;13.31;100.00;100853.13;4928245;28;20142;-86
2023/08/05 01:26:40;;;;;;;8.35;4.38;;;;;;;13.29;100.00;100854.06;4952531;28;20051;-84
2023/08/05 01:29:08;;;;;;;9.73;4.65;;;;;;;13.34;100.00;100849.59;4940283;28;20042;-86
2023/08/05 01:31:35;;;;;;;6.57;3.63;;;;;;;13.31;100.00;100847.00;4941076;29;20125;-83
2023/08/05 01:34:02;;;;;;;5.07;3.65;;;;;;;13.29;100.00;100844.41;4938679;29;20055;-84
2023/08/05 01:36:31;;;;;;;6.55;4.32;;;;;;;13.27;100.00;100846.19;4944512;29;20039;-87
2023/08/05 01:38:57;;;;;;;7.07;4.00;;;;;;;13.23;100.00;100845.38;4945632;28;20046;-84
2023/08/05 01:41:25;;;;;;;5.70;4.88;;;;;;;13.22;100.00;100845.41;4932562;29;20055;-86
2023/08/05 01:43:51;;;;;;;8.52;4.13;;;;;;;13.18;100.00;100847.22;4944343;28;20049;-83
2023/08/05 01:46:18;;;;;;;7.35;4.60;;;;;;;13.22;100.00;100856.78;4933630;29;20468;-83
2023/08/05 01:48:45;;;;;;;8.13;4.15;;;;;;;13.20;100.00;100852.44;4929829;28;20083;-84
2023/08/05 01:51:11;;;;;;;6.95;4.03;;;;;;;13.19;100.00;100856.84;4947373;29;20090;-83
2023/08/05 01:53:38;;;;;;;5.03;4.55;;;;;;;13.20;100.00;100858.56;4940643;28;20106;-86
2023/08/05 01:56:05;;;;;;;5.72;4.53;;;;;;;13.16;100.00;100858.66;4942613;29;20043;-84
2023/08/05 01:58:32;;;;;;;5.45;3.90;;;;;;;13.11;100.00;100866.59;4920883;29;20044;-86
2023/08/05 02:00:58;;;;;;;10.20;4.18;;;;;;;13.08;100.00;100871.91;4928869;28;20054;-85
2023/08/05 02:03:27;;;;;;;4.40;3.95;;;;;;;13.10;100.00;100877.13;4921625;29;20052;-85
2023/08/05 02:05:54;;;;;;;4.45;4.05;;;;;;;13.07;100.00;100872.78;4941720;28;20483;-85
2023/08/05 02:08:21;;;;;;;4.45;3.88;;;;;;;13.05;100.00;100872.81;4929048;29;20408;-88
2023/08/05 02:10:48;;;;;;;4.22;3.58;;;;;;;13.01;100.00;100876.41;4943988;28;20046;-84
2023/08/05 02:13:17;;;;;;;8.90;5.35;;;;;;;13.03;100.00;100881.63;4941176;29;20049;-83
2023/08/05 02:15:43;;;;;;;5.60;3.88;;;;;;;13.04;100.00;100881.59;4936799;28;20040;-84
2023/08/05 02:18:10;;;;;;;5.63;4.30;;;;;;;13.06;100.00;100876.31;4936422;29;20043;-83
2023/08/05 02:20:42;;;;;;;4.65;3.80;;;;;;;13.07;100.00;100888.56;4947551;29;20047;-84
2023/08/05 02:23:09;;;;;;;5.95;4.38;;;;;;;13.05;100.00;100888.59;4946054;28;20118;-86
2023/08/05 02:25:36;;;;;;;3.55;3.22;;;;;;;13.07;100.00;100883.31;4954309;28;20047;-86
2023/08/05 02:28:03;;;;;;;5.97;5.05;;;;;;;13.10;100.00;100869.25;4939572;29;20046;-84
2023/08/05 02:30:30;;;;;;;9.35;5.28;;;;;;;13.09;100.00;100868.41;4961663;28;20051;-87
2023/08/05 02:32:57;;;;;;;9.10;5.53;;;;;;;13.14;100.00;100874.44;4933581;28;20118;-86
2023/08/05 02:35:23;;;;;;;6.85;5.55;;;;;;;13.23;100.00;100876.91;4935006;29;20539;-84
2023/08/05 02:37:50;;;;;;;5.53;5.00;;;;;;;13.37;100.00;100862.69;4943162;28;20555;-84
2023/08/05 02:40:16;;;;;;;7.97;5.35;;;;;;;13.47;100.00;100866.06;4938872;29;20551;-88
2023/08/05 02:42:45;;;;;;;5.25;4.53;;;;;;;13.53;100.00;100861.56;4942042;28;20047;-85
2023/08/05 02:45:12;;;;;;;7.13;4.72;;;;;;;13.57;100.00;100859.72;4943545;28;20071;-83
2023/08/05 02:47:39;;;;;;;6.10;4.80;;;;;;;13.63;100.00;100861.38;4942676;28;20431;-91
2023/08/05 02:50:09;;;;;;;7.63;4.72;;;;;;;13.67;100.00;100855.16;4937556;28;20592;-83
2023/08/05 02:52:36;;;;;;;7.78;4.65;;;;;;;13.67;100.00;100845.50;4921809;29;20409;-85
2023/08/05 02:55:02;;;;;;;6.82;4.25;;;;;;;13.72;100.00;100854.16;4928793;28;20467;-84
2023/08/05 02:57:29;;;;;;;6.03;5.00;;;;;;;13.73;100.00;100849.78;4948366;29;20423;-84
2023/08/05 02:59:55;;;;;;;5.10;4.32;;;;;;;13.79;100.00;100846.16;4942775;28;20497;-84
2023/08/05 03:02:22;;;;;;;11.50;4.43;;;;;;;13.77;100.00;100853.25;4935376;29;20047;-85
2023/08/05 03:04:48;;;;;;;6.20;4.22;;;;;;;13.78;100.00;100847.06;4953177;28;20054;-83
2023/08/05 03:07:15;;;;;;;5.22;3.95;;;;;;;13.72;100.00;100842.78;4940100;29;20122;-86
2023/08/05 03:09:42;;;;;;;5.38;4.15;;;;;;;13.68;100.00;100839.34;4937911;29;20058;-84
2023/08/05 03:12:09;;;;;;;5.07;4.03;;;;;;;13.69;100.00;100846.34;4925538;28;20047;-84
2023/08/05 03:14:36;;;;;;;4.20;3.53;;;;;;;13.69;100.00;100850.75;4914348;29;20047;-84
2023/08/05 03:17:02;;;;;;;4.70;4.15;;;;;;;13.68;100.00;100843.75;4925184;28;20043;-84
2023/08/05 03:19:31;;;;;;;6.70;4.75;;;;;;;13.66;100.00;100838.53;4935983;29;20134;-87
2023/08/05 03:21:58;;;;;;;5.45;3.97;;;;;;;13.62;100.00;100835.97;4937945;28;20047;-84
2023/08/05 03:24:24;;;;;;;4.32;3.63;;;;;;;13.54;100.00;100836.97;4942239;28;20051;-84
2023/08/05 03:26:51;;;;;;;3.75;3.45;;;;;;;13.47;100.00;100843.25;4935927;28;20061;-84
2023/08/05 03:29:18;;;;;;;5.80;4.38;;;;;;;13.37;100.00;100844.28;4937277;28;20043;-84
2023/08/05 03:31:45;;;;;;;4.93;4.43;;;;;;;13.31;100.00;100845.25;4938398;28;20114;-84
2023/08/05 03:34:11;;;;;;;4.28;3.78;;;;;;;13.29;100.00;100848.78;4949662;28;20056;-84
2023/08/05 03:36:38;;;;;;;6.47;4.75;;;;;;;13.37;100.00;100844.28;4938853;29;20123;-84
2023/08/05 03:39:04;;;;;;;5.35;4.45;;;;;;;13.43;100.00;100843.31;4950712;28;20059;-84
2023/08/05 03:41:31;;;;;;;5.25;4.40;;;;;;;13.55;100.00;100851.00;4945649;28;20043;-86
2023/08/05 03:43:58;;;;;;;8.32;4.97;;;;;;;13.65;100.00;100844.66;4943091;28;20050;-84
2023/08/05 03:46:24;;;;;;;8.98;6.03;;;;;;;13.69;100.00;100838.44;4935764;29;20574;-85
2023/08/05 03:48:53;;;;;;;6.40;4.55;;;;;;;13.77;100.00;100843.56;4927019;28;20448;-88
2023/08/05 03:51:20;;;;;;;4.60;4.07;;;;;;;13.80;100.00;100846.13;4931881;29;20126;-85
2023/08/05 03:53:46;;;;;;;7.25;4.03;;;;;;;13.81;100.00;100837.34;4926053;28;20480;-85
2023/08/05 03:56:18;;;;;;;6.28;4.85;;;;;;;13.81;100.00;100839.13;4926656;29;20107;-87
2023/08/05 03:58:46;;;;;;;7.38;4.88;;;;;;;13.80;100.00;100838.25;4929405;28;20043;-83
2023/08/05 04:01:16;;;;;;;5.32;4.65;;;;;;;13.79;100.00;100835.63;4949177;28;20043;-84
2023/08/05 04:03:43;;;;;;;4.63;3.72;;;;;;;13.71;100.00;100835.78;4937239;28;20063;-93
2023/08/05 04:06:11;;;;;;;4.60;4.05;;;;;;;13.64;100.00;100829.78;4931748;29;20049;-84
2023/08/05 04:08:39;;;;;;;5.32;4.75;;;;;;;13.56;100.00;100836.97;4926674;29;20102;-83
2023/08/05 04:11:08;;;;;;;6.70;5.20;;;;;;;13.48;100.00;100829.19;4938474;28;20101;-84
2023/08/05 04:13:34;;;;;;;8.35;5.65;;;;;;;13.47;100.00;100835.34;4944801;29;20036;-85
2023/08/05 04:16:03;;;;;;;6.38;5.40;;;;;;;13.46;100.00;100832.75;4926346;28;20043;-85
2023/08/05 04:18:52;;;;;;;10.02;5.75;;;;;;;13.43;100.00;100833.69;4931115;29;20039;-85
2023/08/05 04:21:20;;;;;;;7.55;6.22;;;;;;;13.44;100.00;100835.41;4935399;29;20126;-84
2023/08/05 04:23:49;;;;;;;6.72;5.53;;;;;;;13.50;100.00;100837.91;4946787;28;20059;-84
2023/08/05 04:26:19;;;;;;;7.05;4.85;;;;;;;13.57;100.00;100836.03;4923969;28;20047;-84
2023/08/05 04:28:45;;;;;;;8.80;5.10;;;;;;;13.65;100.00;100841.16;4944126;28;20047;-85
2023/08/05 04:31:12;;;;;;;5.57;4.68;;;;;;;13.68;100.00;100846.38;4944707;29;20094;-83
2023/08/05 04:33:38;;;;;;;7.63;4.10;;;;;;;13.76;100.00;100840.97;4946661;28;20075;-86
2023/08/05 04:36:05;;;;;;;7.03;5.07;;;;;;;13.86;100.00;100842.53;4938108;28;20051;-84
2023/08/05 04:38:32;;;;;;;5.35;4.65;;;;;;;13.96;100.00;100832.69;4955733;28;20118;-90
2023/08/05 04:40:59;;;;;;;7.47;5.18;;;;;;;14.05;100.00;100828.09;4945199;28;20062;-85
2023/08/05 04:43:26;;;;;;;7.20;4.80;;;;;;;14.15;100.00;100830.53;4931613;28;20137;-85
2023/08/05 04:45:54;;;;;;;6.20;5.22;;;;;;;14.22;100.00;100827.75;4963364;28;20051;-84
2023/08/05 04:48:21;;;;;;;7.45;4.97;;;;;;;14.26;100.00;100820.63;4958336;28;20043;-85
2023/08/05 04:50:48;;;;;;;6.53;4.45;;;;;;;14.31;100.00;100825.81;4934618;28;20047;-84
2023/08/05 04:53:15;;;;;;;7.25;4.47;;;;;;;14.36;100.00;100824.78;4954135;28;20471;-83
2023/08/05 04:55:45;;;;;;;7.70;5.15;;;;;;;14.38;100.00;100827.44;4938175;29;20091;-86
2023/08/05 04:58:12;;;;;;;8.52;4.82;;;;;;;14.40;100.00;100830.88;4937928;29;20039;-83
2023/08/05 05:00:39;;;;;;;7.68;4.93;;;;;;;14.45;100.00;100829.00;4940247;29;20146;-85
2023/08/05 05:03:08;;;;;;;4.90;4.40;;;;;;;14.50;100.00;100839.44;4938194;28;20039;-85
2023/08/05 05:05:36;;;;;;;8.50;4.65;;;;;;;14.55;100.00;100842.84;4941657;28;20054;-83
2023/08/05 05:08:05;;;;;;;5.90;4.35;;;;;;;14.60;100.00;100840.97;4952298;28;20043;-84
2023/08/05 05:10:31;;;;;;;9.32;5.22;;;;;;;14.60;100.00;100840.09;4936642;29;20134;-85
2023/08/05 05:12:58;;;;;;;4.93;4.07;;;;;;;14.59;100.00;100843.63;4937473;28;20554;-86
2023/08/05 05:15:28;;;;;;;9.52;5.88;;;;;;;14.60;100.00;100848.00;4935817;29;20509;-90
2023/08/05 05:17:54;;;;;;;6.55;5.53;;;;;;;14.67;100.00;100855.75;4921234;28;20236;-85
2023/08/05 05:20:21;;;;;;;7.82;5.05;;;;;;;14.65;100.00;100856.69;4933097;29;20117;-85
2023/08/05 05:22:47;;;;;;;7.40;4.80;;;;;;;14.73;100.00;100852.09;4936428;28;20047;-87
2023/08/05 05:25:14;;;;;;;5.35;4.85;;;;;;;14.78;100.00;100850.25;4914732;29;20142;-84
2023/08/05 05:27:41;;;;;;;6.97;4.63;;;;;;;14.85;100.00;100846.56;4933149;29;20067;-85
2023/08/05 05:30:08;;;;;;;7.22;4.68;;;;;;;14.89;100.00;100852.63;4928144;28;20480;-84
2023/08/05 05:32:35;;;;;;;8.40;5.38;;;;;;;15.02;100.00;100851.44;4932280;29;20139;-84
2023/08/05 05:35:02;;;;;;;9.50;5.20;;;;;;;15.08;100.00;100853.03;4922614;28;20102;-84
2023/08/05 05:37:31;;;;;;;8.63;5.25;;;;;;;15.08;100.00;100845.13;4925076;29;20526;-84
2023/08/05 05:39:59;;;;;;;4.43;4.03;;;;;;;15.11;100.00;100842.44;4935367;28;20043;-84
2023/08/05 05:42:30;;;;;;;3.95;3.58;;;;;;;15.17;100.00;100844.91;4935533;29;20071;-84
2023/08/05 05:44:57;;;;;;;5.32;4.82;;;;;;;15.13;100.00;100853.81;4920638;29;20051;-88
2023/08/05 05:47:24;;;;;;;6.43;5.25;;;;;;;15.29;100.00;100853.41;4937473;28;20051;-87
2023/08/05 05:49:50;;;;;;;4.50;4.10;;;;;;;15.42;100.00;100868.03;4935830;28;20047;-84
2023/08/05 05:52:20;;;;;;;4.85;3.85;;;;;;;15.49;100.00;100877.53;4921126;28;20070;-84
2023/08/05 05:54:47;;;;;;;5.85;5.03;;;;;;;15.57;100.00;100877.31;4954107;28;20051;-87
2023/08/05 05:57:13;;;;;;;5.70;3.47;;;;;;;15.63;100.00;100876.28;4936630;28;20043;-91
2023/08/05 05:59:43;;;;;;;6.15;4.25;;;;;;;15.75;100.00;100883.00;4936489;29;20133;-82
2023/08/05 06:02:13;;;;;;;7.80;5.10;;;;;;;15.80;100.00;100875.84;4932160;29;20046;-82
2023/08/05 06:04:41;;;;;;;6.13;4.82;;;;;;;15.90;100.00;100874.72;4952095;28;20050;-84
2023/08/05 06:07:08;;;;;;;4.90;4.35;;;;;;;16.06;100.00;100869.88;4938414;28;20050;-85
2023/08/05 06:09:35;;;;;;;6.40;5.07;;;;;;;16.15;100.00;100869.63;4938018;29;20134;-85
2023/08/05 06:12:01;;;;;;;6.72;3.90;;;;;;;16.24;100.00;100872.91;4917346;28;20455;-84
2023/08/05 06:14:28;;;;;;;5.65;4.55;;;;;;;16.16;100.00;100868.69;4918440;29;20054;-85
2023/08/05 06:16:55;;;;;;;6.70;5.10;;;;;;;16.12;100.00;100867.06;4933307;28;20047;-85
2023/08/05 06:19:22;;;;;;;7.13;4.32;;;;;;;16.14;100.00;100862.59;4943014;29;20046;-84
2023/08/05 06:21:49;;;;;;;8.93;5.05;;;;;;;16.20;100.00;100861.53;4934141;28;20074;-85
2023/08/05 06:24:15;;;;;;;5.50;3.33;;;;;;;16.29;100.00;100860.41;4938646;29;20086;-89
2023/08/05 06:26:42;;;;;;;4.00;3.60;;;;;;;16.36;100.00;100864.59;4937084;29;20577;-85
2023/08/05 06:29:08;;;;;;;6.13;4.50;;;;;;;16.52;100.00;100855.31;4931803;28;20039;-83
2023/08/05 06:31:35;;;;;;;9.48;4.70;;;;;;;16.53;100.00;100851.75;4930136;29;20471;-86
2023/08/05 06:34:02;;;;;;;9.40;4.28;;;;;;;16.53;100.00;100851.75;4936278;28;20082;-88
2023/08/05 06:36:31;;;;;;;8.45;4.35;;;;;;;16.57;100.00;100844.59;4956462;28;20113;-84
2023/08/05 06:38:57;;;;;;;7.32;4.40;;;;;;;16.64;100.00;100837.34;4935022;28;20054;-87
2023/08/05 06:41:24;;;;;;;6.40;4.63;;;;;;;16.60;100.00;100839.22;4953515;28;20487;-85
2023/08/05 06:43:51;;;;;;;4.05;3.17;;;;;;;16.57;100.00;100834.03;4946671;28;20058;-84
2023/08/05 06:46:17;;;;;;;9.90;5.05;;;;;;;16.56;100.00;100831.41;4918249;29;20043;-84
2023/08/05 06:48:45;;;;;;;5.85;3.45;;;;;;;16.44;100.00;100838.84;4918565;29;20134;-86
2023/08/05 06:51:11;;;;;;;3.33;3.03;;;;;;;16.42;100.00;100829.22;4936335;28;20054;-85
2023/08/05 06:53:39;;;;;;;4.60;3.22;;;;;;;16.28;100.00;100825.22;4938320;29;20047;-83
2023/08/05 06:56:06;;;;;;;4.55;2.35;;;;;;;16.17;100.00;100825.53;4928117;28;20048;-84
2023/08/05 06:58:32;;;;;;;3.80;2.63;;;;;;;16.36;100.00;100823.22;4918922;28;20561;-84
2023/08/05 07:00:59;;;;;;;5.32;2.42;;;;;;;16.52;100.00;100820.94;4943236;28;20039;-84
2023/08/05 07:03:25;;;;;;;7.03;2.72;;;;;;;16.70;100.00;100822.16;4942120;29;20487;-85
2023/08/05 07:05:56;;;;;;;3.38;2.42;;;;;;;16.90;100.00;100823.31;4940579;28;20039;-84
2023/08/05 07:08:25;;;;;;;3.35;2.80;;;;;;;16.98;100.00;100817.78;4935275;28;20069;-84
2023/08/05 07:10:56;;;;;;;5.80;3.42;;;;;;;17.03;100.00;100819.34;4929311;28;20119;-92
2023/08/05 07:13:23;;;;;;;4.25;2.65;;;;;;;17.26;100.00;100817.72;4940894;28;20109;-90
2023/08/05 07:15:49;;;;;;;5.32;2.50;;;;;;;17.61;99.68;100817.41;4935647;28;20047;-87
2023/08/05 07:18:16;;;;;;;2.97;2.08;;;;;;;17.99;97.97;100812.50;4935924;29;20118;-89
2023/08/05 07:20:43;;;;;;;5.07;2.15;;;;;;;18.14;96.08;100819.03;4954436;28;20047;-87
2023/08/05 07:23:09;;;;;;;2.60;2.10;;;;;;;18.67;89.76;100825.81;4943643;28;20091;-83
2023/08/05 07:25:36;;;;;;;4.20;2.22;;;;;;;18.89;86.01;100814.34;4944818;29;20047;-83
2023/08/05 07:28:03;;;;;;;3.50;1.45;;;;;;;19.05;88.95;100820.78;4936037;28;20043;-84
2023/08/05 07:30:32;;;;;;;7.65;1.80;;;;;;;19.39;86.56;100813.16;4938329;29;20055;-84
2023/08/05 07:32:59;;;;;;;6.95;2.78;;;;;;;19.83;86.13;100811.22;4928382;28;20047;-85
2023/08/05 07:35:30;;;;;;;5.30;2.15;;;;;;;20.10;83.49;100807.38;4928786;28;20059;-84
2023/08/05 07:37:58;;;;;;;2.00;1.67;;;;;;;20.05;83.63;100806.72;4931808;28;20098;-85
2023/08/05 07:40:25;;;;;;;4.18;2.08;;;;;;;19.98;84.28;100808.81;4930344;29;20043;-86
2023/08/05 07:42:53;;;;;;;1.98;1.70;;;;;;;19.88;82.32;100803.06;4919869;28;20066;-84
2023/08/05 07:45:21;;;;;;;4.00;1.52;;;;;;;19.74;82.07;100808.09;4929755;29;20078;-83
2023/08/05 07:47:51;;;;;;;5.38;1.92;;;;;;;19.89;83.42;100802.09;4933508;28;20469;-85
2023/08/05 07:50:22;;;;;;;2.97;1.80;;;;;;;20.20;82.00;100799.84;4934706;28;20163;-88
2023/08/05 07:52:53;;;;;;;4.85;1.67;;;;;;;20.20;81.00;100792.72;4921342;28;20055;-84
2023/08/05 07:55:20;;;;;;;2.38;1.52;;;;;;;20.37;80.91;100789.25;4935895;29;20475;-84
2023/08/05 07:57:49;;;;;;;4.32;1.33;;;;;;;20.81;76.46;100788.91;4922005;28;20047;-84
2023/08/05 08:00:16;;;;;;;2.80;1.50;;;;;;;20.65;76.59;100782.63;4934651;28;20058;-87
2023/08/05 08:02:44;;;;;;;2.47;1.40;;;;;;;20.37;78.22;100780.44;4936548;29;20130;-83
2023/08/05 08:05:14;;;;;;;3.10;1.50;;;;;;;20.02;76.66;100781.16;4938779;28;20895;-84
2023/08/05 08:07:46;;;;;;;4.63;1.65;;;;;;;19.59;76.69;100775.97;4942138;28;20062;-84
2023/08/05 08:10:14;;;;;;;1.10;1.00;;;;;;;19.49;78.46;100774.69;4920528;28;21491;-82
2023/08/05 08:12:41;;;;;;;2.60;1.35;;;;;;;19.69;77.95;100775.56;4935100;28;20115;-82
2023/08/05 08:15:12;;;;;;;3.60;1.40;;;;;;;19.80;77.22;100778.59;4938772;28;20048;-83
2023/08/05 08:17:41;;;;;;;1.77;1.67;;;;;;;19.96;76.72;100786.78;4946416;28;20188;-87
2023/08/05 08:20:11;;;;;;;3.90;1.75;;;;;;;20.36;76.18;100776.91;4932823;28;20044;-84
2023/08/05 08:22:37;;;;;;;6.72;1.77;;;;;;;20.88;74.87;100777.97;4950941;28;20043;-84
2023/08/05 08:25:05;;;;;;;4.70;1.65;;;;;;;21.69;73.20;100772.91;4937286;28;20105;-84
2023/08/05 08:27:31;;;;;;;3.40;1.75;;;;;;;22.57;69.43;100780.56;4942776;28;20091;-83
2023/08/05 08:29:58;;;;;;;3.47;1.25;;;;;;;23.07;67.89;100775.88;4939174;28;20043;-88
2023/08/05 08:32:25;;;;;;;2.00;1.80;;;;;;;23.89;64.71;100765.59;4923697;29;20053;-83
2023/08/05 08:34:51;;;;;;;4.60;1.50;;;;;;;24.66;61.46;100763.34;4942700;28;20058;-88
2023/08/05 08:37:21;;;;;;;3.72;2.63;;;;;;;25.17;58.84;100765.25;4924237;29;20043;-83
2023/08/05 08:39:48;;;;;;;2.60;0.98;;;;;;;25.89;55.26;100761.19;4948117;28;20494;-83
2023/08/05 08:42:26;;;;;;;1.98;1.00;;;;;;;26.87;51.63;100757.63;4938014;28;20134;-85
2023/08/05 08:44:54;;;;;;;5.10;1.95;;;;;;;27.61;50.38;100751.06;4934931;28;20586;-85
2023/08/05 08:47:22;;;;;;;3.95;1.42;;;;;;;27.28;51.47;100750.03;4919915;29;20480;-83
2023/08/05 08:49:53;;;;;;;2.95;2.00;;;;;;;27.33;48.68;100745.16;4940061;28;20040;-83
2023/08/05 08:52:23;;;;;;;2.90;1.75;;;;;;;27.46;47.31;100742.41;4932290;29;20077;-83
2023/08/05 08:54:52;;;;;;;3.03;1.35;;;;;;;27.39;48.47;100744.69;4942326;29;20055;-83
2023/08/05 08:57:26;;;;;;;1.13;1.00;;;;;;;27.30;49.83;100729.25;4938259;29;20494;-82
2023/08/05 08:59:52;;;;;;;1.85;1.42;;;;;;;27.11;49.78;100725.34;4945769;28;20055;-89
2023/08/05 09:02:26;;;;;;;4.28;1.52;;;;;;;27.80;45.07;100719.03;4943146;29;20066;-83
2023/08/05 09:04:59;;;;;;;2.60;1.10;;;;;;;27.91;45.44;100720.84;4943144;29;20047;-84
2023/08/05 09:07:28;;;;;;;1.33;1.30;;;;;;;27.67;46.10;100716.47;4925988;29;20260;-82
2023/08/05 09:09:57;;;;;;;3.50;1.42;;;;;;;27.42;47.55;100714.03;4937266;28;20498;-82
2023/08/05 09:12:23;;;;;;;1.13;1.13;;;;;;;26.95;48.63;100719.44;4937986;29;20521;-82
2023/08/05 09:14:54;;;;;;;2.08;1.20;;;;;;;27.06;47.43;100712.28;4922786;28;20870;-82
2023/08/05 09:17:20;;;;;;;1.33;1.23;;;;;;;26.89;47.33;100726.13;4936642;29;20102;-82
2023/08/05 09:19:49;;;;;;;1.52;0.98;;;;;;;27.44;46.34;100712.09;4942528;28;20050;-82
2023/08/05 09:22:16;;;;;;;3.22;1.35;;;;;;;28.37;44.72;100719.78;4935717;28;20051;-83
2023/08/05 09:24:42;;;;;;;2.30;1.02;;;;;;;29.72;41.02;100712.84;4941788;29;20051;-83
2023/08/05 09:27:09;;;;;;;1.77;1.17;;;;;;;30.61;39.34;100707.50;4944776;29;20130;-82
2023/08/05 09:29:36;;;;;;;1.23;1.02;;;;;;;30.96;39.09;100715.97;4934645;29;20039;-84
2023/08/05 09:32:05;;;;;;;1.33;1.23;;;;;;;31.16;36.88;100700.59;4944154;29;20098;-88
2023/08/05 09:34:41;;;;;;;0.90;0.80;;;;;;;31.61;35.13;100697.13;4943970;28;20051;-85
2023/08/05 09:37:08;;;;;;;2.95;1.20;;;;;;;30.91;37.45;100699.31;4940191;28;20059;-82
2023/08/05 09:39:45;;;;;;;0.82;0.82;;;;;;;30.82;36.35;100701.03;4933611;28;20089;-82
2023/08/05 09:42:22;;;;;;;1.10;1.00;;;;;;;31.17;36.44;100683.34;4937352;28;20048;-84
2023/08/05 09:44:58;;;;;;;1.15;1.08;;;;;;;31.84;35.99;100685.91;4942563;28;20424;-82
2023/08/05 09:47:30;;;;;;;0.75;0.75;;;;;;;32.02;34.64;100685.06;4936580;28;20050;-83
2023/08/05 09:49:58;;;;;;;0.70;0.55;;;;;;;32.39;33.92;100679.53;4917927;28;20063;-82
2023/08/05 09:52:29;;;;;;;1.92;1.15;;;;;;;33.01;33.06;100678.69;4934405;29;20067;-82
2023/08/05 09:55:05;;;;;;;3.60;1.40;;;;;;;33.08;31.88;100662.63;4933556;28;20051;-83
2023/08/05 09:57:35;;;;;;;1.00;1.00;;;;;;;33.45;32.17;100658.75;4932981;29;20627;-82
2023/08/05 10:00:07;;;;;;;2.13;0.60;;;;;;;33.13;32.25;100657.56;4932507;28;20059;-83
2023/08/05 10:02:36;;;;;;;1.25;0.60;;;;;;;32.85;31.37;100649.59;4912585;29;20044;-82
2023/08/05 10:05:03;;;;;;;0.85;0.80;;;;;;;33.43;31.60;100639.09;4926964;28;20126;-86
2023/08/05 10:07:34;;;;;;;0.90;0.85;;;;;;;33.63;30.05;100637.75;4914385;29;20071;-83
2023/08/05 10:10:01;;;;;;;2.58;0.90;;;;;;;33.52;30.23;100643.53;4929177;28;20082;-83
2023/08/05 10:12:36;;;;;;;0.98;0.70;;;;;;;34.35;29.63;100643.69;4930583;29;20070;-82
2023/08/05 10:15:05;;;;;;;2.42;0.70;;;;;;;34.80;27.69;100647.75;4932226;28;20046;-82
2023/08/05 10:17:32;;;;;;;1.17;0.85;;;;;;;34.89;28.32;100640.44;4934040;29;20070;-82
2023/08/05 10:20:01;;;;;;;0.60;0.60;;;;;;;35.63;27.07;100640.16;4931834;28;20046;-84
2023/08/05 10:22:36;;;;;;;;;;;;;;;34.22;26.52;100639.56;4909828;29;20050;-82
2023/08/05 10:25:02;;;;;;;0.50;0.45;;;;;;;31.94;30.12;100627.16;4933048;28;19922;-82
2023/08/05 10:27:44;;;;;;;0.93;0.60;;;;;;;32.75;28.68;100629.88;4930124;29;20027;-90
2023/08/05 10:30:22;;;;;;;1.20;0.63;;;;;;;32.07;29.38;100631.31;4929370;28;20107;-83
2023/08/05 10:32:58;;;;;;;1.48;0.65;;;;;;;30.73;31.05;100627.13;4914287;29;20558;-83
2023/08/05 10:35:39;;;;;;;0.77;0.65;;;;;;;30.93;31.08;100629.78;4934506;29;20530;-84
2023/08/05 10:38:19;;;;;;;2.08;0.73;;;;;;;31.14;30.79;100618.75;4935176;28;20118;-82
2023/08/05 10:41:00;;;;;;;1.38;0.90;;;;;;;30.93;31.14;100619.81;4926843;29;20135;-82
2023/08/05 10:43:32;;;;;;;1.80;1.00;;;;;;;30.88;31.54;100621.25;4928477;29;20043;-82
2023/08/05 10:46:03;;;;;;;3.10;1.02;;;;;;;30.28;32.59;100612.38;4945525;28;20071;-84
2023/08/05 10:48:43;;;;;;;2.38;1.08;;;;;;;30.35;33.07;100612.63;4930029;29;20051;-82
2023/08/05 10:51:23;;;;;;;1.42;0.73;;;;;;;30.01;33.12;100608.56;4923839;28;20047;-84
2023/08/05 10:53:59;;;;;;;1.45;0.80;;;;;;;29.66;33.82;100606.34;4928234;29;20051;-87
2023/08/05 10:56:36;;;;;;;1.23;0.90;;;;;;;28.49;35.27;100594.03;4932210;29;20495;-85
2023/08/05 10:59:04;;;;;;;2.03;0.80;;;;;;;27.59;37.76;100597.06;4930816;28;20054;-82
2023/08/05 11:01:56;;;;;;;3.45;0.75;;;;;;;26.70;38.95;100595.94;4930248;29;20124;-83
2023/08/05 11:04:31;;;;;;;1.37;0.60;;;;;;;26.39;39.94;100590.25;4913128;29;20051;-85
2023/08/05 11:07:00;;;;;;;1.23;0.77;;;;;;;26.22;40.44;100588.03;4931892;28;20162;-86
2023/08/05 11:09:28;;;;;;;1.80;0.88;;;;;;;25.85;40.99;100588.06;4930939;29;20047;-83
2023/08/05 11:11:55;;;;;;;1.17;0.90;;;;;;;25.64;42.51;100585.16;4911996;29;20050;-85
2023/08/05 11:14:22;;;;;;;0.90;0.90;;;;;;;25.61;41.95;100586.25;4913698;29;20048;-83
2023/08/05 11:16:50;;;;;;;2.33;1.20;;;;;;;25.80;41.89;100583.06;4927938;29;20051;-90
2023/08/05 11:19:16;;;;;;;0.75;0.75;;;;;;;26.59;40.52;100587.88;4928144;28;20497;-85
2023/08/05 11:21:47;;;;;;;1.00;0.90;;;;;;;29.07;35.37;100575.66;4933964;29;20468;-83
2023/08/05 11:24:20;;;;;;;1.13;0.63;;;;;;;29.09;34.67;100581.75;4930294;28;20048;-87